Historyczne dane pomiarowe

Dodano dane terminowe – wersja testowa.

Dane z okresu 1951-2019

Wersja bazy: 1.34 [2019-03-16, lista zmian], aktualizacja planowana na 2019-04-15

Dane meteo z obszaru Polski uzyskane na podstawie danych udostępnionych przez Instytut Meteorologii i Gospodarki Wodnej – Państwowy Instytut Badawczy.

 

Wybierz Datę:    

       

TemperaturaWilgotnośćWiatrCiśnienieOpadyŚniegCzas trwania zjawisk
 Stacja t tx tn tng RH VA  wxwx mslp ppp RRR   cm mm wxwxwxwxwxwxwx
1987-08-14 15.0 20.8 12.4 11.3-- 6.7 3.3---- 5.2------------
1987-08-13 15.0 21.0 10.7 8.5-- 2.3 2.7---- 1.9------------
1987-08-12 13.0 19.0 7.8 6.5-- 2.3 2.0---- 0.2------------
1987-08-11 13.9 18.0 11.4 10.0-- 3.0 5.7---- 1.3------------
1987-08-10 13.9 16.8 12.8 12.0-- 7.3 3.3---- 9.6------------
1987-08-09 15.2 21.4 9.1 6.5-- 6.3 3.3---- 7.3------------
1987-08-08 14.5 21.0 7.8 6.0-- 2.3 3.7---- 0.0------------
1987-08-07 11.7 19.0 4.9 3.9-- 1.7 3.0---- 0.0------------
1987-08-06 10.5 14.0 7.4 6.8-- 6.7 4.7---- 1.0------------
1987-08-05 11.0 15.5 7.6 6.5-- 4.3 5.0---- 1.3------------
1987-08-04 13.5 17.8 10.6 8.5-- 4.0 3.3---- 2.8------------
1987-08-03 13.4 18.4 9.3 8.0-- 5.0 3.3---- 11.8------------
1987-08-02 12.2 16.7 9.2 8.4-- 4.3 4.0---- 2.8------------
1987-08-01 14.8 17.7 13.9 13.7-- 6.7 3.7---- 13.2------------
1987-07-31 15.4 18.5 12.7 12.5-- 6.0 4.7---- 1.0------------
1987-07-30 17.1 25.0 11.7 9.8-- 5.7 3.0---- 1.4------------
1987-07-29 13.6 17.2 9.6 8.5-- 4.3 3.0---- 0.0------------
1987-07-28 13.5 15.5 11.9 11.6-- 4.3 4.7---- 1.0------------
1987-07-27 12.6 17.2 9.0 8.5-- 5.3 6.3---- 4.8------------
1987-07-26 12.2 16.5 7.2 6.5-- 2.3 5.3---- 0.8------------
1987-07-25 14.9 20.4 12.2 11.5-- 6.0 4.3---- 0.0------------
1987-07-24 18.6 23.5 12.9 12.0-- 3.7 4.3---- 0.0------------
1987-07-23 17.9 24.5 12.7 11.8-- 7.0 3.3---- 1.0------------
1987-07-22 19.0 24.2 12.7 11.8-- 2.3 2.3---- 0.0------------
1987-07-21 17.0 21.8 13.3 12.0-- 7.3 2.0---- 6.0------------
1987-07-20 19.3 23.5 15.4 15.0-- 3.0 3.7---- 0.0------------
1987-07-19 18.4 22.0 14.8 13.2-- 6.7 3.3---- 10.2------------
1987-07-18 18.3 22.4 16.6 16.0-- 7.3 3.3---- 19.8------------
1987-07-17 21.5 28.5 16.1 15.5-- 6.0 4.0---- 1.0------------
1987-07-16 18.6 25.0 13.1 12.5-- 4.7 2.7---- 0.0------------
1987-07-15 18.0 23.7 9.3 8.0-- 2.3 3.3---- 0.9------------
1987-07-14 16.7 23.0 7.0 5.0-- 0.3 1.3---- 0.0------------
1987-07-13 15.9 21.0 11.8 10.2-- 3.7 4.0---- 0.0------------
1987-07-12 18.7 23.0 15.1 13.5-- 4.7 2.7---- 2.2------------
1987-07-11 17.4 24.0 10.0 7.9-- 6.0 4.3---- 0.0------------
1987-07-10 14.6 19.0 9.8 7.5-- 3.3 4.3---- 0.0------------
1987-07-09 16.2 21.0 14.6 14.2-- 4.3 4.3---- 0.1------------
1987-07-08 19.9 25.0 16.1 12.0-- 5.3 3.7---- 11.5------------
1987-07-07 20.9 27.6 12.3 8.8-- 2.3 3.0---- 0.0------------
1987-07-06 19.5 25.3 10.0 7.0-- 0.0 2.7---- 0.0------------
1987-07-05 17.0 22.8 10.3 6.5-- 1.0 3.0---- 0.0------------
1987-07-04 18.8 22.2 13.4 12.6-- 2.3 3.3---- 0.0------------
1987-07-03 18.3 23.5 12.8 10.2-- 2.7 1.7---- 0.0------------
1987-07-02 19.0 23.0 13.0 10.2-- 1.7 2.3---- 0.0------------
1987-07-01 21.3 29.8 19.9 16.7-- 5.0 3.0---- 17.3------------
1987-06-30 24.9 30.7 18.1 14.0-- 1.0 2.3---- 0.0------------
1987-06-29 21.0 27.6 13.8 11.0-- 4.0 2.7---- 0.0------------
1987-06-28 18.0 20.0 15.1 13.0-- 6.0 3.3---- 0.5------------
1987-06-27 18.0 21.0 14.2 12.8-- 1.7 3.3---- 0.0------------
1987-06-26 16.5 21.4 9.7 7.9-- 2.0 3.3---- 0.0------------
1987-06-25 13.6 17.4 10.8 10.0-- 6.0 2.7---- 0.1------------
1987-06-24 14.3 18.5 10.4 8.5-- 5.3 2.0---- 5.2------------
1987-06-23 13.3 18.0 9.3 6.0-- 5.3 3.3---- 6.0------------
1987-06-22 15.1 18.4 12.3 12.0-- 4.3 4.0---- 0.0------------
1987-06-21 15.6 21.0 12.0 9.8-- 6.3 3.7---- 2.3------------
1987-06-20 16.2 21.4 8.4 5.2-- 2.3 3.7---- 0.0------------
1987-06-19 13.2 18.2 9.0 8.2-- 4.0 3.7---- 0.0------------
1987-06-18 9.5 13.6 7.1 5.2-- 6.3 4.0---- 4.6------------
1987-06-17 11.9 15.5 9.6 9.0-- 3.3 5.7---- 0.4------------
1987-06-16 10.4 14.8 8.8 8.6-- 7.3 5.7---- 1.2------------
429.9 ms

 

Źródłem pochodzenia danych jest Instytut Meteorologii i Gospodarki Wodnej – Państwowy Instytut Badawczy. Dane Instytutu Meteorologii i Gospodarki Wodnej – Państwowego Instytutu Badawczego zostały przetworzone.

Dane źródłowe można odnaleźć na stronie https://dane.imgw.pl